sensor_id;sensor_type;location;lat;lon;timestamp;temperature;humidity
17152;DHT22;8691;50.828;4.700;2022-12-18T00:01:47;-6.80;99.90
17152;DHT22;8691;50.828;4.700;2022-12-18T00:04:21;-6.80;99.90
17152;DHT22;8691;50.828;4.700;2022-12-18T00:06:47;-6.80;99.90
17152;DHT22;8691;50.828;4.700;2022-12-18T00:09:15;-6.90;99.90
17152;DHT22;8691;50.828;4.700;2022-12-18T00:11:41;-6.90;99.90
17152;DHT22;8691;50.828;4.700;2022-12-18T00:14:09;-6.90;99.90
17152;DHT22;8691;50.828;4.700;2022-12-18T00:16:36;-6.90;99.90
17152;DHT22;8691;50.828;4.700;2022-12-18T00:19:04;-7.00;99.90
17152;DHT22;8691;50.828;4.700;2022-12-18T00:21:31;-7.00;99.90
17152;DHT22;8691;50.828;4.700;2022-12-18T00:23:58;-7.00;99.90
17152;DHT22;8691;50.828;4.700;2022-12-18T00:26:30;-7.00;99.90
17152;DHT22;8691;50.828;4.700;2022-12-18T00:28:54;-7.10;99.90
17152;DHT22;8691;50.828;4.700;2022-12-18T00:31:21;-7.20;99.90
17152;DHT22;8691;50.828;4.700;2022-12-18T00:33:48;-7.10;99.90
17152;DHT22;8691;50.828;4.700;2022-12-18T00:36:16;-7.10;99.90
17152;DHT22;8691;50.828;4.700;2022-12-18T00:38:42;-7.10;99.90
17152;DHT22;8691;50.828;4.700;2022-12-18T00:41:10;-7.10;99.90
17152;DHT22;8691;50.828;4.700;2022-12-18T00:43:37;-7.20;99.90
17152;DHT22;8691;50.828;4.700;2022-12-18T00:46:04;-7.20;99.90
17152;DHT22;8691;50.828;4.700;2022-12-18T00:48:32;-7.20;99.90
17152;DHT22;8691;50.828;4.700;2022-12-18T00:50:59;-7.30;99.90
17152;DHT22;8691;50.828;4.700;2022-12-18T00:53:27;-7.30;99.90
17152;DHT22;8691;50.828;4.700;2022-12-18T00:55:54;-7.30;99.90
17152;DHT22;8691;50.828;4.700;2022-12-18T00:58:21;-7.40;99.90
17152;DHT22;8691;50.828;4.700;2022-12-18T01:00:49;-7.40;99.90
17152;DHT22;8691;50.828;4.700;2022-12-18T01:03:16;-7.40;99.90
17152;DHT22;8691;50.828;4.700;2022-12-18T01:05:43;-7.40;99.90
17152;DHT22;8691;50.828;4.700;2022-12-18T01:08:09;-7.40;99.90
17152;DHT22;8691;50.828;4.700;2022-12-18T01:10:39;-7.40;99.90
17152;DHT22;8691;50.828;4.700;2022-12-18T01:13:03;-7.50;99.90
17152;DHT22;8691;50.828;4.700;2022-12-18T01:15:30;-7.40;99.90
17152;DHT22;8691;50.828;4.700;2022-12-18T01:17:57;-7.40;99.90
17152;DHT22;8691;50.828;4.700;2022-12-18T01:20:24;-7.40;99.90
17152;DHT22;8691;50.828;4.700;2022-12-18T01:22:51;-7.40;99.90
17152;DHT22;8691;50.828;4.700;2022-12-18T01:25:18;-7.40;99.90
17152;DHT22;8691;50.828;4.700;2022-12-18T01:27:45;-7.50;99.90
17152;DHT22;8691;50.828;4.700;2022-12-18T01:30:12;-7.50;99.90
17152;DHT22;8691;50.828;4.700;2022-12-18T01:32:40;-7.60;99.90
17152;DHT22;8691;50.828;4.700;2022-12-18T01:35:08;-7.60;99.90
17152;DHT22;8691;50.828;4.700;2022-12-18T01:37:34;-7.60;99.90
17152;DHT22;8691;50.828;4.700;2022-12-18T01:40:01;-7.70;99.90
17152;DHT22;8691;50.828;4.700;2022-12-18T01:42:28;-7.70;99.90
17152;DHT22;8691;50.828;4.700;2022-12-18T01:47:47;-7.60;99.90
17152;DHT22;8691;50.828;4.700;2022-12-18T01:52:36;-7.60;99.90
17152;DHT22;8691;50.828;4.700;2022-12-18T01:55:04;-7.70;99.90
17152;DHT22;8691;50.828;4.700;2022-12-18T01:57:33;-7.80;99.90
17152;DHT22;8691;50.828;4.700;2022-12-18T02:00:07;-7.80;99.90
17152;DHT22;8691;50.828;4.700;2022-12-18T02:02:32;-7.70;99.90
17152;DHT22;8691;50.828;4.700;2022-12-18T02:04:59;-7.60;99.90
17152;DHT22;8691;50.828;4.700;2022-12-18T02:07:51;-7.60;99.90
17152;DHT22;8691;50.828;4.700;2022-12-18T02:10:23;-7.40;99.90
17152;DHT22;8691;50.828;4.700;2022-12-18T02:12:57;-7.40;99.90
17152;DHT22;8691;50.828;4.700;2022-12-18T02:15:27;-7.30;99.90
17152;DHT22;8691;50.828;4.700;2022-12-18T02:18:01;-7.10;99.90
17152;DHT22;8691;50.828;4.700;2022-12-18T02:20:28;-6.90;99.90
17152;DHT22;8691;50.828;4.700;2022-12-18T02:28:47;-6.50;99.90
17152;DHT22;8691;50.828;4.700;2022-12-18T02:31:11;-6.60;99.90
17152;DHT22;8691;50.828;4.700;2022-12-18T02:33:37;-6.80;99.90
17152;DHT22;8691;50.828;4.700;2022-12-18T02:36:04;-7.00;99.90
17152;DHT22;8691;50.828;4.700;2022-12-18T02:38:31;-7.00;99.90
17152;DHT22;8691;50.828;4.700;2022-12-18T02:40:58;-7.10;99.90
17152;DHT22;8691;50.828;4.700;2022-12-18T02:43:25;-7.30;99.90
17152;DHT22;8691;50.828;4.700;2022-12-18T02:45:53;-7.40;99.90
17152;DHT22;8691;50.828;4.700;2022-12-18T02:48:21;-7.50;99.90
17152;DHT22;8691;50.828;4.700;2022-12-18T02:50:50;-7.60;99.90
17152;DHT22;8691;50.828;4.700;2022-12-18T02:53:24;-7.70;99.90
17152;DHT22;8691;50.828;4.700;2022-12-18T03:01:13;-7.80;99.90
17152;DHT22;8691;50.828;4.700;2022-12-18T03:06:21;-7.90;99.90
17152;DHT22;8691;50.828;4.700;2022-12-18T03:08:47;-7.90;99.90
17152;DHT22;8691;50.828;4.700;2022-12-18T03:11:13;-7.90;99.90
17152;DHT22;8691;50.828;4.700;2022-12-18T03:13:41;-7.90;99.90
17152;DHT22;8691;50.828;4.700;2022-12-18T03:16:07;-7.90;99.90
17152;DHT22;8691;50.828;4.700;2022-12-18T03:18:40;-8.00;99.90
17152;DHT22;8691;50.828;4.700;2022-12-18T03:21:06;-8.00;99.90
17152;DHT22;8691;50.828;4.700;2022-12-18T03:23:36;-8.00;99.90
17152;DHT22;8691;50.828;4.700;2022-12-18T03:26:04;-8.00;99.90
17152;DHT22;8691;50.828;4.700;2022-12-18T03:28:28;-8.10;99.90
17152;DHT22;8691;50.828;4.700;2022-12-18T03:30:57;-8.00;99.90
17152;DHT22;8691;50.828;4.700;2022-12-18T03:33:27;-8.00;99.90
17152;DHT22;8691;50.828;4.700;2022-12-18T03:35:52;-8.00;99.90
17152;DHT22;8691;50.828;4.700;2022-12-18T03:38:19;-8.00;99.90
17152;DHT22;8691;50.828;4.700;2022-12-18T03:41:11;-8.10;99.90
17152;DHT22;8691;50.828;4.700;2022-12-18T03:43:52;-8.00;99.90
17152;DHT22;8691;50.828;4.700;2022-12-18T03:46:15;-8.00;99.90
17152;DHT22;8691;50.828;4.700;2022-12-18T03:48:43;-8.10;99.90
17152;DHT22;8691;50.828;4.700;2022-12-18T03:54:02;-8.20;99.90
17152;DHT22;8691;50.828;4.700;2022-12-18T03:56:29;-8.30;99.90
17152;DHT22;8691;50.828;4.700;2022-12-18T03:58:56;-8.30;99.90
17152;DHT22;8691;50.828;4.700;2022-12-18T04:01:31;-8.40;99.90
17152;DHT22;8691;50.828;4.700;2022-12-18T04:03:58;-8.40;99.90
17152;DHT22;8691;50.828;4.700;2022-12-18T04:06:23;-8.40;99.90
17152;DHT22;8691;50.828;4.700;2022-12-18T04:08:50;-8.40;99.90
17152;DHT22;8691;50.828;4.700;2022-12-18T04:11:17;-8.30;99.90
17152;DHT22;8691;50.828;4.700;2022-12-18T04:13:44;-8.30;99.90
17152;DHT22;8691;50.828;4.700;2022-12-18T04:16:11;-8.20;99.90
17152;DHT22;8691;50.828;4.700;2022-12-18T04:18:38;-8.20;99.90
17152;DHT22;8691;50.828;4.700;2022-12-18T04:21:06;-8.30;99.90
17152;DHT22;8691;50.828;4.700;2022-12-18T04:23:33;-8.30;99.90
17152;DHT22;8691;50.828;4.700;2022-12-18T04:26:00;-8.30;99.90
17152;DHT22;8691;50.828;4.700;2022-12-18T04:28:26;-8.30;99.90
17152;DHT22;8691;50.828;4.700;2022-12-18T04:30:53;-8.40;99.90
17152;DHT22;8691;50.828;4.700;2022-12-18T04:33:20;-8.40;99.90
17152;DHT22;8691;50.828;4.700;2022-12-18T04:35:47;-8.40;99.90
17152;DHT22;8691;50.828;4.700;2022-12-18T04:38:15;-8.40;99.90
17152;DHT22;8691;50.828;4.700;2022-12-18T04:40:42;-8.50;99.90
17152;DHT22;8691;50.828;4.700;2022-12-18T04:43:09;-8.50;99.90
17152;DHT22;8691;50.828;4.700;2022-12-18T04:45:37;-8.50;99.90
17152;DHT22;8691;50.828;4.700;2022-12-18T04:48:04;-8.50;99.90
17152;DHT22;8691;50.828;4.700;2022-12-18T04:50:30;-8.50;99.90
17152;DHT22;8691;50.828;4.700;2022-12-18T04:52:57;-8.50;99.90
17152;DHT22;8691;50.828;4.700;2022-12-18T04:55:24;-8.50;99.90
17152;DHT22;8691;50.828;4.700;2022-12-18T04:57:51;-8.50;99.90
17152;DHT22;8691;50.828;4.700;2022-12-18T05:00:18;-8.50;99.90
17152;DHT22;8691;50.828;4.700;2022-12-18T05:02:45;-8.50;99.90
17152;DHT22;8691;50.828;4.700;2022-12-18T05:05:12;-8.50;99.90
17152;DHT22;8691;50.828;4.700;2022-12-18T05:07:40;-8.50;99.90
17152;DHT22;8691;50.828;4.700;2022-12-18T05:10:07;-8.60;99.90
17152;DHT22;8691;50.828;4.700;2022-12-18T05:12:34;-8.60;99.90
17152;DHT22;8691;50.828;4.700;2022-12-18T05:15:04;-8.60;99.90
17152;DHT22;8691;50.828;4.700;2022-12-18T05:17:30;-8.60;99.90
17152;DHT22;8691;50.828;4.700;2022-12-18T05:19:58;-8.60;99.90
17152;DHT22;8691;50.828;4.700;2022-12-18T05:22:26;-8.60;99.90
17152;DHT22;8691;50.828;4.700;2022-12-18T05:24:53;-8.60;99.90
17152;DHT22;8691;50.828;4.700;2022-12-18T05:27:21;-8.60;99.90
17152;DHT22;8691;50.828;4.700;2022-12-18T05:29:49;-8.60;99.90
17152;DHT22;8691;50.828;4.700;2022-12-18T05:32:16;-8.60;99.90
17152;DHT22;8691;50.828;4.700;2022-12-18T05:34:43;-8.60;99.90
17152;DHT22;8691;50.828;4.700;2022-12-18T05:37:11;-8.60;99.90
17152;DHT22;8691;50.828;4.700;2022-12-18T05:39:38;-8.60;99.90
17152;DHT22;8691;50.828;4.700;2022-12-18T05:42:06;-8.50;99.90
17152;DHT22;8691;50.828;4.700;2022-12-18T05:44:34;-8.50;99.90
17152;DHT22;8691;50.828;4.700;2022-12-18T05:47:01;-8.50;99.90
17152;DHT22;8691;50.828;4.700;2022-12-18T05:49:28;-8.50;99.90
17152;DHT22;8691;50.828;4.700;2022-12-18T05:51:54;-8.50;99.90
17152;DHT22;8691;50.828;4.700;2022-12-18T05:54:21;-8.50;99.90
17152;DHT22;8691;50.828;4.700;2022-12-18T05:56:48;-8.50;99.90
17152;DHT22;8691;50.828;4.700;2022-12-18T05:59:16;-8.50;99.90
17152;DHT22;8691;50.828;4.700;2022-12-18T06:01:42;-8.50;99.90
17152;DHT22;8691;50.828;4.700;2022-12-18T06:04:09;-8.50;99.90
17152;DHT22;8691;50.828;4.700;2022-12-18T06:06:36;-8.50;99.90
17152;DHT22;8691;50.828;4.700;2022-12-18T06:09:03;-8.60;99.90
17152;DHT22;8691;50.828;4.700;2022-12-18T06:11:29;-8.50;99.90
17152;DHT22;8691;50.828;4.700;2022-12-18T06:13:56;-8.60;99.90
17152;DHT22;8691;50.828;4.700;2022-12-18T06:16:23;-8.60;99.90
17152;DHT22;8691;50.828;4.700;2022-12-18T06:18:50;-8.60;99.90
17152;DHT22;8691;50.828;4.700;2022-12-18T06:21:17;-8.60;99.90
17152;DHT22;8691;50.828;4.700;2022-12-18T06:23:44;-8.60;99.90
17152;DHT22;8691;50.828;4.700;2022-12-18T06:26:12;-8.60;99.90
17152;DHT22;8691;50.828;4.700;2022-12-18T06:28:37;-8.60;99.90
17152;DHT22;8691;50.828;4.700;2022-12-18T06:31:05;-8.60;99.90
17152;DHT22;8691;50.828;4.700;2022-12-18T06:33:32;-8.60;99.90
17152;DHT22;8691;50.828;4.700;2022-12-18T06:36:06;-8.60;99.90
17152;DHT22;8691;50.828;4.700;2022-12-18T06:38:33;-8.60;99.90
17152;DHT22;8691;50.828;4.700;2022-12-18T06:41:00;-8.60;99.90
17152;DHT22;8691;50.828;4.700;2022-12-18T06:43:27;-8.60;99.90
17152;DHT22;8691;50.828;4.700;2022-12-18T06:45:59;-8.60;99.90
17152;DHT22;8691;50.828;4.700;2022-12-18T06:48:26;-8.50;99.90
17152;DHT22;8691;50.828;4.700;2022-12-18T06:50:54;-8.40;99.90
17152;DHT22;8691;50.828;4.700;2022-12-18T06:53:22;-8.40;99.90
17152;DHT22;8691;50.828;4.700;2022-12-18T06:55:48;-8.50;99.90
17152;DHT22;8691;50.828;4.700;2022-12-18T06:58:15;-8.40;99.90
17152;DHT22;8691;50.828;4.700;2022-12-18T07:00:42;-8.40;99.90
17152;DHT22;8691;50.828;4.700;2022-12-18T07:03:09;-8.30;99.90
17152;DHT22;8691;50.828;4.700;2022-12-18T07:05:39;-8.30;99.90
17152;DHT22;8691;50.828;4.700;2022-12-18T07:08:06;-8.20;99.90
17152;DHT22;8691;50.828;4.700;2022-12-18T07:10:40;-8.10;99.90
17152;DHT22;8691;50.828;4.700;2022-12-18T07:13:01;-8.10;99.90
17152;DHT22;8691;50.828;4.700;2022-12-18T07:15:29;-8.10;99.90
17152;DHT22;8691;50.828;4.700;2022-12-18T07:17:57;-8.00;99.90
17152;DHT22;8691;50.828;4.700;2022-12-18T07:20:24;-8.00;99.90
17152;DHT22;8691;50.828;4.700;2022-12-18T07:22:52;-8.00;99.90
17152;DHT22;8691;50.828;4.700;2022-12-18T07:25:19;-7.90;99.90
17152;DHT22;8691;50.828;4.700;2022-12-18T07:27:45;-7.80;99.90
17152;DHT22;8691;50.828;4.700;2022-12-18T07:30:12;-7.80;99.90
17152;DHT22;8691;50.828;4.700;2022-12-18T07:32:40;-7.70;99.90
17152;DHT22;8691;50.828;4.700;2022-12-18T07:35:06;-7.60;99.90
17152;DHT22;8691;50.828;4.700;2022-12-18T07:37:33;-7.60;99.90
17152;DHT22;8691;50.828;4.700;2022-12-18T07:40:01;-7.50;99.90
17152;DHT22;8691;50.828;4.700;2022-12-18T07:42:28;-7.60;99.90
17152;DHT22;8691;50.828;4.700;2022-12-18T07:44:59;-7.60;99.90
17152;DHT22;8691;50.828;4.700;2022-12-18T07:47:30;-7.60;99.90
17152;DHT22;8691;50.828;4.700;2022-12-18T07:49:54;-7.60;99.90
17152;DHT22;8691;50.828;4.700;2022-12-18T07:52:22;-7.60;99.90
17152;DHT22;8691;50.828;4.700;2022-12-18T07:54:48;-7.60;99.90
17152;DHT22;8691;50.828;4.700;2022-12-18T07:57:16;-7.50;99.90
17152;DHT22;8691;50.828;4.700;2022-12-18T07:59:42;-7.50;99.90
17152;DHT22;8691;50.828;4.700;2022-12-18T08:02:09;-7.40;99.90
17152;DHT22;8691;50.828;4.700;2022-12-18T08:04:36;-7.40;99.90
17152;DHT22;8691;50.828;4.700;2022-12-18T08:07:03;-7.40;99.90
17152;DHT22;8691;50.828;4.700;2022-12-18T08:09:30;-7.30;99.90
17152;DHT22;8691;50.828;4.700;2022-12-18T08:11:57;-7.10;99.90
17152;DHT22;8691;50.828;4.700;2022-12-18T08:14:24;-7.10;99.90
17152;DHT22;8691;50.828;4.700;2022-12-18T08:16:51;-6.90;99.90
17152;DHT22;8691;50.828;4.700;2022-12-18T08:19:18;-6.80;99.90
17152;DHT22;8691;50.828;4.700;2022-12-18T08:21:46;-6.60;99.90
17152;DHT22;8691;50.828;4.700;2022-12-18T08:24:12;-6.50;99.90
17152;DHT22;8691;50.828;4.700;2022-12-18T08:26:39;-6.30;99.90
17152;DHT22;8691;50.828;4.700;2022-12-18T08:29:06;-6.20;99.90
17152;DHT22;8691;50.828;4.700;2022-12-18T08:31:35;-5.90;99.90
17152;DHT22;8691;50.828;4.700;2022-12-18T08:34:02;-5.90;99.90
17152;DHT22;8691;50.828;4.700;2022-12-18T08:36:29;-5.70;99.90
17152;DHT22;8691;50.828;4.700;2022-12-18T08:38:56;-5.40;99.90
17152;DHT22;8691;50.828;4.700;2022-12-18T08:41:23;-5.10;99.90
17152;DHT22;8691;50.828;4.700;2022-12-18T08:43:49;-4.70;99.90
17152;DHT22;8691;50.828;4.700;2022-12-18T08:46:38;-4.30;99.90
17152;DHT22;8691;50.828;4.700;2022-12-18T08:49:05;-3.80;99.90
17152;DHT22;8691;50.828;4.700;2022-12-18T08:51:32;-3.70;99.90
17152;DHT22;8691;50.828;4.700;2022-12-18T08:53:58;-3.50;99.90
17152;DHT22;8691;50.828;4.700;2022-12-18T08:56:25;-3.30;99.90
17152;DHT22;8691;50.828;4.700;2022-12-18T08:58:52;-3.10;99.90
17152;DHT22;8691;50.828;4.700;2022-12-18T09:01:19;-2.90;99.90
17152;DHT22;8691;50.828;4.700;2022-12-18T09:03:47;-2.60;99.90
17152;DHT22;8691;50.828;4.700;2022-12-18T09:06:14;-2.40;99.90
17152;DHT22;8691;50.828;4.700;2022-12-18T09:08:42;-2.00;99.90
17152;DHT22;8691;50.828;4.700;2022-12-18T09:11:25;-2.00;99.90
17152;DHT22;8691;50.828;4.700;2022-12-18T09:13:51;-1.90;99.90
17152;DHT22;8691;50.828;4.700;2022-12-18T09:16:18;-1.80;99.90
17152;DHT22;8691;50.828;4.700;2022-12-18T09:18:44;-1.60;99.90
17152;DHT22;8691;50.828;4.700;2022-12-18T09:21:15;-1.60;99.90
17152;DHT22;8691;50.828;4.700;2022-12-18T09:23:40;-1.50;99.90
17152;DHT22;8691;50.828;4.700;2022-12-18T09:26:07;-1.50;99.90
17152;DHT22;8691;50.828;4.700;2022-12-18T09:28:34;-1.40;99.90
17152;DHT22;8691;50.828;4.700;2022-12-18T09:31:07;-1.30;99.90
17152;DHT22;8691;50.828;4.700;2022-12-18T09:33:35;-1.30;99.90
17152;DHT22;8691;50.828;4.700;2022-12-18T09:36:02;-1.20;99.90
17152;DHT22;8691;50.828;4.700;2022-12-18T09:38:29;-1.20;99.90
17152;DHT22;8691;50.828;4.700;2022-12-18T09:41:04;-1.30;99.90
17152;DHT22;8691;50.828;4.700;2022-12-18T09:45:59;-1.50;99.90
17152;DHT22;8691;50.828;4.700;2022-12-18T09:48:38;-1.50;99.90
17152;DHT22;8691;50.828;4.700;2022-12-18T09:51:05;-1.50;99.90
17152;DHT22;8691;50.828;4.700;2022-12-18T09:53:31;-1.50;99.90
17152;DHT22;8691;50.828;4.700;2022-12-18T09:55:57;-1.50;99.90
17152;DHT22;8691;50.828;4.700;2022-12-18T09:58:39;-1.70;99.90
17152;DHT22;8691;50.828;4.700;2022-12-18T10:01:07;-1.70;99.90
17152;DHT22;8691;50.828;4.700;2022-12-18T10:03:29;-1.60;99.90
17152;DHT22;8691;50.828;4.700;2022-12-18T10:09:05;-1.30;99.90
17152;DHT22;8691;50.828;4.700;2022-12-18T10:11:43;-1.30;99.90
17152;DHT22;8691;50.828;4.700;2022-12-18T10:14:30;-1.20;99.90
17152;DHT22;8691;50.828;4.700;2022-12-18T10:17:13;-1.00;99.90
17152;DHT22;8691;50.828;4.700;2022-12-18T10:22:26;-1.00;99.90
17152;DHT22;8691;50.828;4.700;2022-12-18T10:27:41;-1.20;99.90
17152;DHT22;8691;50.828;4.700;2022-12-18T10:30:15;-1.30;99.90
17152;DHT22;8691;50.828;4.700;2022-12-18T10:32:41;-1.30;99.90
17152;DHT22;8691;50.828;4.700;2022-12-18T10:35:11;-1.20;99.90
17152;DHT22;8691;50.828;4.700;2022-12-18T10:37:35;-1.10;99.90
17152;DHT22;8691;50.828;4.700;2022-12-18T10:42:35;-1.00;99.90
17152;DHT22;8691;50.828;4.700;2022-12-18T10:45:07;-0.90;99.90
17152;DHT22;8691;50.828;4.700;2022-12-18T10:47:30;-0.90;99.90
17152;DHT22;8691;50.828;4.700;2022-12-18T10:49:57;-0.80;99.90
17152;DHT22;8691;50.828;4.700;2022-12-18T10:52:24;-0.80;99.90
17152;DHT22;8691;50.828;4.700;2022-12-18T10:55:01;-0.80;99.90
17152;DHT22;8691;50.828;4.700;2022-12-18T10:59:55;-0.80;99.90
17152;DHT22;8691;50.828;4.700;2022-12-18T11:02:36;-0.80;99.90
17152;DHT22;8691;50.828;4.700;2022-12-18T11:05:04;-0.80;99.90
17152;DHT22;8691;50.828;4.700;2022-12-18T11:07:47;-0.70;99.90
17152;DHT22;8691;50.828;4.700;2022-12-18T11:10:14;-0.50;99.90
17152;DHT22;8691;50.828;4.700;2022-12-18T11:12:37;-0.50;99.90
17152;DHT22;8691;50.828;4.700;2022-12-18T11:15:03;-0.20;99.90
17152;DHT22;8691;50.828;4.700;2022-12-18T11:17:35;-0.20;99.90
17152;DHT22;8691;50.828;4.700;2022-12-18T11:20:18;-0.10;99.90
17152;DHT22;8691;50.828;4.700;2022-12-18T11:22:34;0.20;99.90
17152;DHT22;8691;50.828;4.700;2022-12-18T11:25:16;0.20;99.90
17152;DHT22;8691;50.828;4.700;2022-12-18T11:27:30;0.30;99.90
17152;DHT22;8691;50.828;4.700;2022-12-18T11:30:09;0.40;99.90
17152;DHT22;8691;50.828;4.700;2022-12-18T11:32:39;0.50;99.90
17152;DHT22;8691;50.828;4.700;2022-12-18T11:35:16;0.60;99.90
17152;DHT22;8691;50.828;4.700;2022-12-18T11:37:45;0.70;99.90
17152;DHT22;8691;50.828;4.700;2022-12-18T11:40:15;0.70;99.90
17152;DHT22;8691;50.828;4.700;2022-12-18T11:42:48;0.80;99.90
17152;DHT22;8691;50.828;4.700;2022-12-18T11:51:00;0.70;99.90
17152;DHT22;8691;50.828;4.700;2022-12-18T11:52:59;0.70;99.90
17152;DHT22;8691;50.828;4.700;2022-12-18T12:07:10;0.90;99.90
17152;DHT22;8691;50.828;4.700;2022-12-18T12:09:37;1.00;99.90
17152;DHT22;8691;50.828;4.700;2022-12-18T12:12:20;1.00;99.90
17152;DHT22;8691;50.828;4.700;2022-12-18T12:17:37;1.10;99.90
17152;DHT22;8691;50.828;4.700;2022-12-18T12:20:12;1.20;99.90
17152;DHT22;8691;50.828;4.700;2022-12-18T12:22:47;1.10;99.90
17152;DHT22;8691;50.828;4.700;2022-12-18T12:25:14;1.10;99.90
17152;DHT22;8691;50.828;4.700;2022-12-18T12:27:54;1.20;99.90
17152;DHT22;8691;50.828;4.700;2022-12-18T12:36:09;1.10;99.90
17152;DHT22;8691;50.828;4.700;2022-12-18T12:38:34;1.30;99.90
17152;DHT22;8691;50.828;4.700;2022-12-18T12:41:02;1.40;99.90
17152;DHT22;8691;50.828;4.700;2022-12-18T12:43:41;1.40;99.90
17152;DHT22;8691;50.828;4.700;2022-12-18T12:46:06;1.50;99.90
17152;DHT22;8691;50.828;4.700;2022-12-18T12:48:48;1.50;99.90
17152;DHT22;8691;50.828;4.700;2022-12-18T12:51:24;1.50;99.90
17152;DHT22;8691;50.828;4.700;2022-12-18T12:53:50;1.50;99.90
17152;DHT22;8691;50.828;4.700;2022-12-18T12:56:18;1.30;99.90
17152;DHT22;8691;50.828;4.700;2022-12-18T13:02:06;1.50;99.90
17152;DHT22;8691;50.828;4.700;2022-12-18T13:07:17;1.60;99.90
17152;DHT22;8691;50.828;4.700;2022-12-18T13:15:23;1.60;99.90
17152;DHT22;8691;50.828;4.700;2022-12-18T13:17:49;1.50;99.90
17152;DHT22;8691;50.828;4.700;2022-12-18T13:20:16;1.50;99.90
17152;DHT22;8691;50.828;4.700;2022-12-18T13:22:46;1.50;99.90
17152;DHT22;8691;50.828;4.700;2022-12-18T13:25:34;1.50;99.90
17152;DHT22;8691;50.828;4.700;2022-12-18T13:28:07;1.50;99.90
17152;DHT22;8691;50.828;4.700;2022-12-18T13:40:58;1.20;99.90
17152;DHT22;8691;50.828;4.700;2022-12-18T13:43:32;1.30;99.90
17152;DHT22;8691;50.828;4.700;2022-12-18T13:48:35;1.40;99.90
17152;DHT22;8691;50.828;4.700;2022-12-18T13:51:01;1.40;99.90
17152;DHT22;8691;50.828;4.700;2022-12-18T13:53:29;1.40;99.90
17152;DHT22;8691;50.828;4.700;2022-12-18T13:55:54;1.40;99.90
17152;DHT22;8691;50.828;4.700;2022-12-18T13:58:21;1.40;99.90
17152;DHT22;8691;50.828;4.700;2022-12-18T14:00:48;1.30;99.90
17152;DHT22;8691;50.828;4.700;2022-12-18T14:03:19;1.20;99.90
17152;DHT22;8691;50.828;4.700;2022-12-18T14:05:42;1.20;99.90
17152;DHT22;8691;50.828;4.700;2022-12-18T14:08:10;1.20;99.90
17152;DHT22;8691;50.828;4.700;2022-12-18T14:10:39;1.20;99.90
17152;DHT22;8691;50.828;4.700;2022-12-18T14:13:03;1.10;99.90
17152;DHT22;8691;50.828;4.700;2022-12-18T14:15:33;1.20;99.90
17152;DHT22;8691;50.828;4.700;2022-12-18T14:18:43;1.10;99.90
17152;DHT22;8691;50.828;4.700;2022-12-18T14:20:31;1.10;99.90
17152;DHT22;8691;50.828;4.700;2022-12-18T14:22:58;1.10;99.90
17152;DHT22;8691;50.828;4.700;2022-12-18T14:25:25;1.10;99.90
17152;DHT22;8691;50.828;4.700;2022-12-18T14:30:43;1.10;99.90
17152;DHT22;8691;50.828;4.700;2022-12-18T14:35:37;1.00;99.90
17152;DHT22;8691;50.828;4.700;2022-12-18T14:38:23;1.00;99.90
17152;DHT22;8691;50.828;4.700;2022-12-18T14:40:55;0.90;99.90
17152;DHT22;8691;50.828;4.700;2022-12-18T14:43:21;0.90;99.90
17152;DHT22;8691;50.828;4.700;2022-12-18T14:45:48;0.90;99.90
17152;DHT22;8691;50.828;4.700;2022-12-18T14:48:24;0.80;99.90
17152;DHT22;8691;50.828;4.700;2022-12-18T14:50:58;0.80;99.90
17152;DHT22;8691;50.828;4.700;2022-12-18T14:53:27;0.80;99.90
17152;DHT22;8691;50.828;4.700;2022-12-18T14:55:50;0.80;99.90
17152;DHT22;8691;50.828;4.700;2022-12-18T14:58:17;0.80;99.90
17152;DHT22;8691;50.828;4.700;2022-12-18T15:00:44;0.70;99.90
17152;DHT22;8691;50.828;4.700;2022-12-18T15:03:12;0.70;99.90
17152;DHT22;8691;50.828;4.700;2022-12-18T15:05:38;0.70;99.90
17152;DHT22;8691;50.828;4.700;2022-12-18T15:08:24;0.70;99.90
17152;DHT22;8691;50.828;4.700;2022-12-18T15:10:33;0.70;99.90
17152;DHT22;8691;50.828;4.700;2022-12-18T15:20:45;0.70;99.90
17152;DHT22;8691;50.828;4.700;2022-12-18T15:25:41;0.60;99.90
17152;DHT22;8691;50.828;4.700;2022-12-18T15:28:19;0.60;99.90
17152;DHT22;8691;50.828;4.700;2022-12-18T15:31:00;0.60;99.90
17152;DHT22;8691;50.828;4.700;2022-12-18T15:33:27;0.50;99.90
17152;DHT22;8691;50.828;4.700;2022-12-18T15:35:59;0.50;99.90
17152;DHT22;8691;50.828;4.700;2022-12-18T15:38:25;0.50;99.90
17152;DHT22;8691;50.828;4.700;2022-12-18T15:40:52;0.50;99.90
17152;DHT22;8691;50.828;4.700;2022-12-18T15:43:24;0.50;99.90
17152;DHT22;8691;50.828;4.700;2022-12-18T15:48:45;0.50;99.90
17152;DHT22;8691;50.828;4.700;2022-12-18T15:51:23;0.50;99.90
17152;DHT22;8691;50.828;4.700;2022-12-18T15:53:41;0.50;99.90
17152;DHT22;8691;50.828;4.700;2022-12-18T15:56:12;0.50;99.90
17152;DHT22;8691;50.828;4.700;2022-12-18T15:58:57;0.50;99.90
17152;DHT22;8691;50.828;4.700;2022-12-18T16:01:24;0.40;99.90
17152;DHT22;8691;50.828;4.700;2022-12-18T16:03:50;0.50;99.90
17152;DHT22;8691;50.828;4.700;2022-12-18T16:06:17;0.60;99.90
17152;DHT22;8691;50.828;4.700;2022-12-18T16:08:44;0.50;99.90
17152;DHT22;8691;50.828;4.700;2022-12-18T16:11:27;0.50;99.90
17152;DHT22;8691;50.828;4.700;2022-12-18T16:14:24;0.60;99.90
17152;DHT22;8691;50.828;4.700;2022-12-18T16:16:51;0.60;99.90
17152;DHT22;8691;50.828;4.700;2022-12-18T16:19:17;0.60;99.90
17152;DHT22;8691;50.828;4.700;2022-12-18T16:21:44;0.60;99.90
17152;DHT22;8691;50.828;4.700;2022-12-18T16:24:14;0.60;99.90
17152;DHT22;8691;50.828;4.700;2022-12-18T16:26:40;0.60;99.90
17152;DHT22;8691;50.828;4.700;2022-12-18T16:29:07;0.60;99.90
17152;DHT22;8691;50.828;4.700;2022-12-18T16:31:34;0.60;99.90
17152;DHT22;8691;50.828;4.700;2022-12-18T16:34:11;0.60;99.90
17152;DHT22;8691;50.828;4.700;2022-12-18T16:36:37;0.60;99.90
17152;DHT22;8691;50.828;4.700;2022-12-18T16:39:04;0.60;99.90
17152;DHT22;8691;50.828;4.700;2022-12-18T16:41:31;0.70;99.90
17152;DHT22;8691;50.828;4.700;2022-12-18T16:43:58;0.70;99.90
17152;DHT22;8691;50.828;4.700;2022-12-18T16:46:25;0.70;99.90
17152;DHT22;8691;50.828;4.700;2022-12-18T16:48:51;0.70;99.90
17152;DHT22;8691;50.828;4.700;2022-12-18T16:51:19;0.70;99.90
17152;DHT22;8691;50.828;4.700;2022-12-18T16:53:46;0.70;99.90
17152;DHT22;8691;50.828;4.700;2022-12-18T16:56:14;0.70;99.90
17152;DHT22;8691;50.828;4.700;2022-12-18T16:58:41;0.70;99.90
17152;DHT22;8691;50.828;4.700;2022-12-18T17:01:08;0.80;99.90
17152;DHT22;8691;50.828;4.700;2022-12-18T17:03:35;0.80;99.90
17152;DHT22;8691;50.828;4.700;2022-12-18T17:06:05;0.90;99.90
17152;DHT22;8691;50.828;4.700;2022-12-18T17:08:31;0.80;99.90
17152;DHT22;8691;50.828;4.700;2022-12-18T17:11:07;0.80;99.90
17152;DHT22;8691;50.828;4.700;2022-12-18T17:13:34;0.80;99.90
17152;DHT22;8691;50.828;4.700;2022-12-18T17:16:05;0.90;99.90
17152;DHT22;8691;50.828;4.700;2022-12-18T17:18:32;0.90;99.90
17152;DHT22;8691;50.828;4.700;2022-12-18T17:21:00;0.90;99.90
17152;DHT22;8691;50.828;4.700;2022-12-18T17:23:27;1.00;99.90
17152;DHT22;8691;50.828;4.700;2022-12-18T17:25:56;1.00;99.90
17152;DHT22;8691;50.828;4.700;2022-12-18T17:28:23;1.00;99.90
17152;DHT22;8691;50.828;4.700;2022-12-18T17:30:49;1.00;99.90
17152;DHT22;8691;50.828;4.700;2022-12-18T17:33:16;1.00;99.90
17152;DHT22;8691;50.828;4.700;2022-12-18T17:35:43;1.00;99.90
17152;DHT22;8691;50.828;4.700;2022-12-18T17:38:10;1.10;99.90
17152;DHT22;8691;50.828;4.700;2022-12-18T17:40:37;1.10;99.90
17152;DHT22;8691;50.828;4.700;2022-12-18T17:43:03;1.00;99.90
17152;DHT22;8691;50.828;4.700;2022-12-18T17:45:30;1.00;99.90
17152;DHT22;8691;50.828;4.700;2022-12-18T17:47:57;1.00;99.90